sensor_id;sensor_type;location;lat;lon;timestamp;P1;durP1;ratioP1;P2;durP2;ratioP2
49193;SDS011;35029;50.804;12.866;2023-12-28T00:02:01;1.90;;;1.17;;
49193;SDS011;35029;50.804;12.866;2023-12-28T00:04:28;2.08;;;0.90;;
49193;SDS011;35029;50.804;12.866;2023-12-28T00:06:53;2.33;;;1.02;;
49193;SDS011;35029;50.804;12.866;2023-12-28T00:09:19;2.08;;;1.35;;
49193;SDS011;35029;50.804;12.866;2023-12-28T00:11:44;2.35;;;1.20;;
49193;SDS011;35029;50.804;12.866;2023-12-28T00:14:10;1.40;;;1.02;;
49193;SDS011;35029;50.804;12.866;2023-12-28T00:16:35;1.27;;;1.02;;
49193;SDS011;35029;50.804;12.866;2023-12-28T00:19:03;1.52;;;1.10;;
49193;SDS011;35029;50.804;12.866;2023-12-28T00:21:31;1.50;;;0.98;;
49193;SDS011;35029;50.804;12.866;2023-12-28T00:23:57;1.63;;;1.00;;
49193;SDS011;35029;50.804;12.866;2023-12-28T00:26:23;1.17;;;1.08;;
49193;SDS011;35029;50.804;12.866;2023-12-28T00:29:00;2.25;;;1.40;;
49193;SDS011;35029;50.804;12.866;2023-12-28T00:31:25;2.28;;;1.42;;
49193;SDS011;35029;50.804;12.866;2023-12-28T00:33:51;1.48;;;1.25;;
49193;SDS011;35029;50.804;12.866;2023-12-28T00:36:16;1.15;;;1.00;;
49193;SDS011;35029;50.804;12.866;2023-12-28T00:38:42;2.05;;;1.35;;
49193;SDS011;35029;50.804;12.866;2023-12-28T00:41:08;1.75;;;1.30;;
49193;SDS011;35029;50.804;12.866;2023-12-28T00:43:33;1.23;;;1.13;;
49193;SDS011;35029;50.804;12.866;2023-12-28T00:45:59;1.90;;;1.30;;
49193;SDS011;35029;50.804;12.866;2023-12-28T00:48:24;1.60;;;1.10;;
49193;SDS011;35029;50.804;12.866;2023-12-28T00:50:51;1.52;;;1.20;;
49193;SDS011;35029;50.804;12.866;2023-12-28T00:53:20;2.47;;;1.40;;
49193;SDS011;35029;50.804;12.866;2023-12-28T00:55:46;2.85;;;1.10;;
49193;SDS011;35029;50.804;12.866;2023-12-28T00:58:11;2.10;;;1.40;;
49193;SDS011;35029;50.804;12.866;2023-12-28T01:00:37;1.98;;;1.40;;
49193;SDS011;35029;50.804;12.866;2023-12-28T01:03:02;2.30;;;1.30;;
49193;SDS011;35029;50.804;12.866;2023-12-28T01:05:29;1.90;;;1.30;;
49193;SDS011;35029;50.804;12.866;2023-12-28T01:07:55;3.63;;;1.20;;
49193;SDS011;35029;50.804;12.866;2023-12-28T01:10:20;2.85;;;1.33;;
49193;SDS011;35029;50.804;12.866;2023-12-28T01:12:46;2.67;;;1.48;;
49193;SDS011;35029;50.804;12.866;2023-12-28T01:15:11;2.22;;;1.48;;
49193;SDS011;35029;50.804;12.866;2023-12-28T01:17:37;3.60;;;1.65;;
49193;SDS011;35029;50.804;12.866;2023-12-28T01:20:03;2.42;;;1.48;;
49193;SDS011;35029;50.804;12.866;2023-12-28T01:22:29;2.78;;;1.52;;
49193;SDS011;35029;50.804;12.866;2023-12-28T01:24:55;2.70;;;1.30;;
49193;SDS011;35029;50.804;12.866;2023-12-28T01:27:20;2.05;;;1.45;;
49193;SDS011;35029;50.804;12.866;2023-12-28T01:29:46;1.75;;;1.40;;
49193;SDS011;35029;50.804;12.866;2023-12-28T01:32:12;2.40;;;1.30;;
49193;SDS011;35029;50.804;12.866;2023-12-28T01:34:39;1.40;;;1.20;;
49193;SDS011;35029;50.804;12.866;2023-12-28T01:37:05;3.67;;;1.40;;
49193;SDS011;35029;50.804;12.866;2023-12-28T01:39:32;3.35;;;1.45;;
49193;SDS011;35029;50.804;12.866;2023-12-28T01:41:58;1.80;;;1.33;;
49193;SDS011;35029;50.804;12.866;2023-12-28T01:44:24;2.80;;;1.38;;
49193;SDS011;35029;50.804;12.866;2023-12-28T01:46:50;1.42;;;1.20;;
49193;SDS011;35029;50.804;12.866;2023-12-28T01:49:15;3.88;;;1.73;;
49193;SDS011;35029;50.804;12.866;2023-12-28T01:51:41;2.60;;;1.33;;
49193;SDS011;35029;50.804;12.866;2023-12-28T01:54:09;2.20;;;1.30;;
49193;SDS011;35029;50.804;12.866;2023-12-28T01:56:35;1.50;;;1.40;;
49193;SDS011;35029;50.804;12.866;2023-12-28T01:59:01;2.90;;;1.58;;
49193;SDS011;35029;50.804;12.866;2023-12-28T02:01:26;1.83;;;1.23;;
49193;SDS011;35029;50.804;12.866;2023-12-28T02:03:54;1.88;;;1.30;;
49193;SDS011;35029;50.804;12.866;2023-12-28T02:06:21;1.70;;;1.25;;
49193;SDS011;35029;50.804;12.866;2023-12-28T02:08:48;8.43;;;1.52;;
49193;SDS011;35029;50.804;12.866;2023-12-28T02:11:15;1.80;;;1.00;;
49193;SDS011;35029;50.804;12.866;2023-12-28T02:13:43;1.73;;;1.27;;
49193;SDS011;35029;50.804;12.866;2023-12-28T02:21:19;2.67;;;1.30;;
49193;SDS011;35029;50.804;12.866;2023-12-28T02:23:47;1.80;;;1.30;;
49193;SDS011;35029;50.804;12.866;2023-12-28T02:26:14;2.08;;;1.05;;
49193;SDS011;35029;50.804;12.866;2023-12-28T02:28:43;1.45;;;1.25;;
49193;SDS011;35029;50.804;12.866;2023-12-28T02:31:32;2.38;;;1.10;;
49193;SDS011;35029;50.804;12.866;2023-12-28T02:34:06;2.70;;;1.35;;
49193;SDS011;35029;50.804;12.866;2023-12-28T02:36:41;1.25;;;1.05;;
49193;SDS011;35029;50.804;12.866;2023-12-28T02:39:11;2.03;;;1.30;;
49193;SDS011;35029;50.804;12.866;2023-12-28T02:41:40;2.22;;;1.00;;
49193;SDS011;35029;50.804;12.866;2023-12-28T02:44:08;1.60;;;1.17;;
49193;SDS011;35029;50.804;12.866;2023-12-28T02:46:34;2.05;;;1.30;;
49193;SDS011;35029;50.804;12.866;2023-12-28T02:48:59;2.70;;;1.30;;
49193;SDS011;35029;50.804;12.866;2023-12-28T02:51:25;1.45;;;0.90;;
49193;SDS011;35029;50.804;12.866;2023-12-28T02:53:50;2.58;;;1.20;;
49193;SDS011;35029;50.804;12.866;2023-12-28T02:56:16;2.00;;;1.30;;
49193;SDS011;35029;50.804;12.866;2023-12-28T02:58:41;1.27;;;1.17;;
49193;SDS011;35029;50.804;12.866;2023-12-28T03:01:07;2.55;;;1.38;;
49193;SDS011;35029;50.804;12.866;2023-12-28T03:03:32;1.98;;;1.20;;
49193;SDS011;35029;50.804;12.866;2023-12-28T03:05:58;1.80;;;1.15;;
49193;SDS011;35029;50.804;12.866;2023-12-28T03:08:24;1.40;;;1.00;;
49193;SDS011;35029;50.804;12.866;2023-12-28T03:10:49;3.03;;;1.23;;
49193;SDS011;35029;50.804;12.866;2023-12-28T03:13:15;1.80;;;1.48;;
49193;SDS011;35029;50.804;12.866;2023-12-28T03:15:40;2.03;;;1.30;;
49193;SDS011;35029;50.804;12.866;2023-12-28T03:18:06;2.95;;;1.48;;
49193;SDS011;35029;50.804;12.866;2023-12-28T03:20:32;2.08;;;1.55;;
49193;SDS011;35029;50.804;12.866;2023-12-28T03:23:21;2.38;;;1.73;;
49193;SDS011;35029;50.804;12.866;2023-12-28T03:25:47;2.45;;;1.70;;
49193;SDS011;35029;50.804;12.866;2023-12-28T03:28:13;1.58;;;1.45;;
49193;SDS011;35029;50.804;12.866;2023-12-28T03:33:42;3.50;;;1.60;;
49193;SDS011;35029;50.804;12.866;2023-12-28T03:36:08;2.10;;;1.63;;
49193;SDS011;35029;50.804;12.866;2023-12-28T03:38:43;2.53;;;1.83;;
49193;SDS011;35029;50.804;12.866;2023-12-28T03:41:18;2.22;;;1.55;;
49193;SDS011;35029;50.804;12.866;2023-12-28T03:43:44;2.63;;;1.60;;
49193;SDS011;35029;50.804;12.866;2023-12-28T03:46:10;2.28;;;1.52;;
49193;SDS011;35029;50.804;12.866;2023-12-28T03:48:36;2.78;;;1.52;;
49193;SDS011;35029;50.804;12.866;2023-12-28T03:51:02;2.63;;;1.63;;
49193;SDS011;35029;50.804;12.866;2023-12-28T03:53:28;2.85;;;1.38;;
49193;SDS011;35029;50.804;12.866;2023-12-28T03:55:54;2.83;;;1.80;;
49193;SDS011;35029;50.804;12.866;2023-12-28T03:58:19;2.88;;;1.30;;
49193;SDS011;35029;50.804;12.866;2023-12-28T04:00:45;4.85;;;1.65;;
49193;SDS011;35029;50.804;12.866;2023-12-28T04:03:10;2.65;;;1.65;;
49193;SDS011;35029;50.804;12.866;2023-12-28T04:05:36;1.90;;;1.52;;
49193;SDS011;35029;50.804;12.866;2023-12-28T04:08:02;2.33;;;1.52;;
49193;SDS011;35029;50.804;12.866;2023-12-28T04:10:29;2.83;;;1.80;;
49193;SDS011;35029;50.804;12.866;2023-12-28T04:12:57;1.92;;;1.60;;
49193;SDS011;35029;50.804;12.866;2023-12-28T04:15:23;2.13;;;1.75;;
49193;SDS011;35029;50.804;12.866;2023-12-28T04:17:49;2.45;;;1.70;;
49193;SDS011;35029;50.804;12.866;2023-12-28T04:20:14;2.53;;;1.88;;
49193;SDS011;35029;50.804;12.866;2023-12-28T04:22:40;2.97;;;1.65;;
49193;SDS011;35029;50.804;12.866;2023-12-28T04:25:08;5.72;;;1.92;;
49193;SDS011;35029;50.804;12.866;2023-12-28T04:27:34;2.50;;;1.75;;
49193;SDS011;35029;50.804;12.866;2023-12-28T04:30:02;3.28;;;1.88;;
49193;SDS011;35029;50.804;12.866;2023-12-28T04:32:34;2.28;;;1.30;;
49193;SDS011;35029;50.804;12.866;2023-12-28T04:35:01;3.08;;;1.83;;
49193;SDS011;35029;50.804;12.866;2023-12-28T04:37:29;2.53;;;1.50;;
49193;SDS011;35029;50.804;12.866;2023-12-28T04:39:55;3.25;;;1.73;;
49193;SDS011;35029;50.804;12.866;2023-12-28T04:42:22;2.47;;;1.52;;
49193;SDS011;35029;50.804;12.866;2023-12-28T04:44:47;4.20;;;1.85;;
49193;SDS011;35029;50.804;12.866;2023-12-28T04:47:13;3.90;;;2.15;;
49193;SDS011;35029;50.804;12.866;2023-12-28T04:49:38;2.72;;;1.70;;
49193;SDS011;35029;50.804;12.866;2023-12-28T04:52:05;2.78;;;1.63;;
49193;SDS011;35029;50.804;12.866;2023-12-28T04:54:30;3.40;;;1.80;;
49193;SDS011;35029;50.804;12.866;2023-12-28T04:56:58;2.63;;;1.70;;
49193;SDS011;35029;50.804;12.866;2023-12-28T04:59:24;3.28;;;1.42;;
49193;SDS011;35029;50.804;12.866;2023-12-28T05:01:50;2.72;;;1.60;;
49193;SDS011;35029;50.804;12.866;2023-12-28T05:04:16;1.98;;;1.40;;
49193;SDS011;35029;50.804;12.866;2023-12-28T05:06:42;4.32;;;1.73;;
49193;SDS011;35029;50.804;12.866;2023-12-28T05:09:07;3.28;;;1.80;;
49193;SDS011;35029;50.804;12.866;2023-12-28T05:11:33;2.70;;;1.77;;
49193;SDS011;35029;50.804;12.866;2023-12-28T05:13:58;2.72;;;1.60;;
49193;SDS011;35029;50.804;12.866;2023-12-28T05:16:24;2.42;;;1.73;;
49193;SDS011;35029;50.804;12.866;2023-12-28T05:18:49;3.28;;;2.03;;
49193;SDS011;35029;50.804;12.866;2023-12-28T05:21:15;2.75;;;1.50;;
49193;SDS011;35029;50.804;12.866;2023-12-28T05:23:40;3.85;;;1.92;;
49193;SDS011;35029;50.804;12.866;2023-12-28T05:26:06;5.85;;;1.83;;
49193;SDS011;35029;50.804;12.866;2023-12-28T05:28:32;2.92;;;1.60;;
49193;SDS011;35029;50.804;12.866;2023-12-28T05:30:57;2.75;;;1.70;;
49193;SDS011;35029;50.804;12.866;2023-12-28T05:33:26;2.75;;;2.03;;
49193;SDS011;35029;50.804;12.866;2023-12-28T05:35:51;3.40;;;1.65;;
49193;SDS011;35029;50.804;12.866;2023-12-28T05:38:17;1.58;;;1.30;;
49193;SDS011;35029;50.804;12.866;2023-12-28T05:40:43;5.60;;;2.00;;
49193;SDS011;35029;50.804;12.866;2023-12-28T05:43:12;3.78;;;1.88;;
49193;SDS011;35029;50.804;12.866;2023-12-28T05:45:37;1.83;;;1.45;;
49193;SDS011;35029;50.804;12.866;2023-12-28T05:48:03;2.92;;;1.80;;
49193;SDS011;35029;50.804;12.866;2023-12-28T05:50:29;4.45;;;1.95;;
49193;SDS011;35029;50.804;12.866;2023-12-28T05:52:54;2.92;;;1.80;;
49193;SDS011;35029;50.804;12.866;2023-12-28T05:55:20;3.13;;;2.00;;
49193;SDS011;35029;50.804;12.866;2023-12-28T05:57:46;2.97;;;1.98;;
49193;SDS011;35029;50.804;12.866;2023-12-28T06:00:13;3.13;;;1.67;;
49193;SDS011;35029;50.804;12.866;2023-12-28T06:02:40;4.90;;;2.00;;
49193;SDS011;35029;50.804;12.866;2023-12-28T06:05:07;2.55;;;1.73;;
49193;SDS011;35029;50.804;12.866;2023-12-28T06:07:33;6.35;;;2.20;;
49193;SDS011;35029;50.804;12.866;2023-12-28T06:09:58;5.70;;;2.30;;
49193;SDS011;35029;50.804;12.866;2023-12-28T06:12:24;2.80;;;2.10;;
49193;SDS011;35029;50.804;12.866;2023-12-28T06:14:50;7.00;;;2.28;;
49193;SDS011;35029;50.804;12.866;2023-12-28T06:17:15;4.50;;;1.95;;
49193;SDS011;35029;50.804;12.866;2023-12-28T06:19:41;3.53;;;2.05;;
49193;SDS011;35029;50.804;12.866;2023-12-28T06:22:07;4.20;;;2.05;;
49193;SDS011;35029;50.804;12.866;2023-12-28T06:24:33;3.15;;;2.17;;
49193;SDS011;35029;50.804;12.866;2023-12-28T06:27:02;3.35;;;2.08;;
49193;SDS011;35029;50.804;12.866;2023-12-28T06:29:28;3.22;;;1.70;;
49193;SDS011;35029;50.804;12.866;2023-12-28T06:31:53;3.38;;;2.22;;
49193;SDS011;35029;50.804;12.866;2023-12-28T06:34:19;2.80;;;1.90;;
49193;SDS011;35029;50.804;12.866;2023-12-28T06:36:44;3.72;;;2.20;;
49193;SDS011;35029;50.804;12.866;2023-12-28T06:39:10;2.45;;;1.85;;
49193;SDS011;35029;50.804;12.866;2023-12-28T06:41:36;2.13;;;1.80;;
49193;SDS011;35029;50.804;12.866;2023-12-28T06:44:01;3.63;;;2.42;;
49193;SDS011;35029;50.804;12.866;2023-12-28T06:46:27;4.03;;;2.22;;
49193;SDS011;35029;50.804;12.866;2023-12-28T06:48:52;3.28;;;2.10;;
49193;SDS011;35029;50.804;12.866;2023-12-28T06:51:18;5.18;;;2.35;;
49193;SDS011;35029;50.804;12.866;2023-12-28T06:53:45;2.92;;;2.10;;
49193;SDS011;35029;50.804;12.866;2023-12-28T06:56:12;3.42;;;2.50;;
49193;SDS011;35029;50.804;12.866;2023-12-28T06:58:37;2.75;;;1.75;;
49193;SDS011;35029;50.804;12.866;2023-12-28T07:01:03;5.93;;;2.33;;
49193;SDS011;35029;50.804;12.866;2023-12-28T07:03:29;2.30;;;2.10;;
49193;SDS011;35029;50.804;12.866;2023-12-28T07:06:00;3.90;;;2.28;;
49193;SDS011;35029;50.804;12.866;2023-12-28T07:08:28;5.28;;;2.30;;
49193;SDS011;35029;50.804;12.866;2023-12-28T07:10:54;5.25;;;2.60;;
49193;SDS011;35029;50.804;12.866;2023-12-28T07:13:19;4.25;;;2.40;;
49193;SDS011;35029;50.804;12.866;2023-12-28T07:15:45;3.58;;;2.15;;
49193;SDS011;35029;50.804;12.866;2023-12-28T07:18:10;4.13;;;2.67;;
49193;SDS011;35029;50.804;12.866;2023-12-28T07:20:36;3.20;;;2.50;;
49193;SDS011;35029;50.804;12.866;2023-12-28T07:23:02;3.00;;;2.17;;
49193;SDS011;35029;50.804;12.866;2023-12-28T07:25:28;3.45;;;2.17;;
49193;SDS011;35029;50.804;12.866;2023-12-28T07:27:54;4.20;;;2.33;;
49193;SDS011;35029;50.804;12.866;2023-12-28T07:30:19;3.80;;;2.47;;
49193;SDS011;35029;50.804;12.866;2023-12-28T07:32:45;6.50;;;2.45;;
49193;SDS011;35029;50.804;12.866;2023-12-28T07:35:10;5.55;;;2.42;;
49193;SDS011;35029;50.804;12.866;2023-12-28T07:37:36;5.40;;;2.28;;
49193;SDS011;35029;50.804;12.866;2023-12-28T07:40:02;3.53;;;2.28;;
49193;SDS011;35029;50.804;12.866;2023-12-28T07:42:28;4.70;;;2.45;;
49193;SDS011;35029;50.804;12.866;2023-12-28T07:44:54;2.95;;;2.35;;
49193;SDS011;35029;50.804;12.866;2023-12-28T07:47:19;5.70;;;2.72;;
49193;SDS011;35029;50.804;12.866;2023-12-28T07:49:45;3.15;;;2.30;;
49193;SDS011;35029;50.804;12.866;2023-12-28T07:52:11;3.65;;;2.60;;
49193;SDS011;35029;50.804;12.866;2023-12-28T07:54:37;3.63;;;2.58;;
49193;SDS011;35029;50.804;12.866;2023-12-28T07:57:02;2.72;;;2.42;;
49193;SDS011;35029;50.804;12.866;2023-12-28T07:59:28;7.65;;;2.92;;
49193;SDS011;35029;50.804;12.866;2023-12-28T08:01:54;3.50;;;2.50;;
49193;SDS011;35029;50.804;12.866;2023-12-28T08:04:20;4.60;;;2.40;;
49193;SDS011;35029;50.804;12.866;2023-12-28T08:06:46;3.13;;;2.55;;
49193;SDS011;35029;50.804;12.866;2023-12-28T08:09:11;9.05;;;2.42;;
49193;SDS011;35029;50.804;12.866;2023-12-28T08:11:37;2.50;;;2.28;;
49193;SDS011;35029;50.804;12.866;2023-12-28T08:14:03;4.43;;;2.55;;
49193;SDS011;35029;50.804;12.866;2023-12-28T08:16:29;4.00;;;2.22;;
49193;SDS011;35029;50.804;12.866;2023-12-28T08:18:54;4.13;;;2.45;;
49193;SDS011;35029;50.804;12.866;2023-12-28T08:21:20;3.75;;;2.40;;
49193;SDS011;35029;50.804;12.866;2023-12-28T08:23:45;6.25;;;2.30;;
49193;SDS011;35029;50.804;12.866;2023-12-28T08:26:11;3.80;;;2.58;;
49193;SDS011;35029;50.804;12.866;2023-12-28T08:28:37;4.07;;;2.53;;
49193;SDS011;35029;50.804;12.866;2023-12-28T08:31:02;3.65;;;2.55;;
49193;SDS011;35029;50.804;12.866;2023-12-28T08:33:28;2.88;;;2.40;;
49193;SDS011;35029;50.804;12.866;2023-12-28T08:35:54;3.92;;;2.45;;
49193;SDS011;35029;50.804;12.866;2023-12-28T08:38:19;4.22;;;2.40;;
49193;SDS011;35029;50.804;12.866;2023-12-28T08:40:45;3.38;;;2.45;;
49193;SDS011;35029;50.804;12.866;2023-12-28T08:43:11;2.83;;;2.03;;
49193;SDS011;35029;50.804;12.866;2023-12-28T08:45:36;3.35;;;1.95;;
49193;SDS011;35029;50.804;12.866;2023-12-28T08:48:02;4.00;;;2.60;;
49193;SDS011;35029;50.804;12.866;2023-12-28T08:50:28;4.90;;;2.25;;
49193;SDS011;35029;50.804;12.866;2023-12-28T08:52:54;4.88;;;2.65;;
49193;SDS011;35029;50.804;12.866;2023-12-28T08:55:20;4.63;;;2.20;;
49193;SDS011;35029;50.804;12.866;2023-12-28T08:57:46;5.05;;;2.92;;
49193;SDS011;35029;50.804;12.866;2023-12-28T09:00:13;3.42;;;2.28;;
49193;SDS011;35029;50.804;12.866;2023-12-28T09:02:41;2.95;;;2.20;;
49193;SDS011;35029;50.804;12.866;2023-12-28T09:05:07;4.32;;;2.15;;
49193;SDS011;35029;50.804;12.866;2023-12-28T09:07:32;5.03;;;2.50;;
49193;SDS011;35029;50.804;12.866;2023-12-28T09:09:58;4.95;;;2.20;;
49193;SDS011;35029;50.804;12.866;2023-12-28T09:12:24;3.70;;;2.40;;
49193;SDS011;35029;50.804;12.866;2023-12-28T09:14:49;5.50;;;2.55;;
49193;SDS011;35029;50.804;12.866;2023-12-28T09:17:18;4.80;;;2.30;;
49193;SDS011;35029;50.804;12.866;2023-12-28T09:19:46;2.95;;;2.03;;
49193;SDS011;35029;50.804;12.866;2023-12-28T09:22:12;3.80;;;2.40;;
49193;SDS011;35029;50.804;12.866;2023-12-28T09:24:37;5.00;;;2.72;;
49193;SDS011;35029;50.804;12.866;2023-12-28T09:27:03;4.07;;;2.60;;
49193;SDS011;35029;50.804;12.866;2023-12-28T09:29:28;5.53;;;2.28;;
49193;SDS011;35029;50.804;12.866;2023-12-28T09:31:54;5.13;;;2.78;;
49193;SDS011;35029;50.804;12.866;2023-12-28T09:34:19;5.40;;;2.47;;
49193;SDS011;35029;50.804;12.866;2023-12-28T09:36:45;3.70;;;2.47;;
49193;SDS011;35029;50.804;12.866;2023-12-28T09:39:11;3.33;;;2.50;;
49193;SDS011;35029;50.804;12.866;2023-12-28T09:41:39;4.32;;;2.30;;
49193;SDS011;35029;50.804;12.866;2023-12-28T09:44:11;3.72;;;2.25;;
49193;SDS011;35029;50.804;12.866;2023-12-28T09:46:40;2.63;;;2.00;;
49193;SDS011;35029;50.804;12.866;2023-12-28T09:49:07;3.42;;;2.65;;
49193;SDS011;35029;50.804;12.866;2023-12-28T09:51:34;3.95;;;2.47;;
49193;SDS011;35029;50.804;12.866;2023-12-28T09:54:00;4.20;;;2.55;;
49193;SDS011;35029;50.804;12.866;2023-12-28T09:56:28;3.10;;;2.20;;
49193;SDS011;35029;50.804;12.866;2023-12-28T09:58:54;4.65;;;2.67;;
49193;SDS011;35029;50.804;12.866;2023-12-28T10:01:22;3.00;;;2.30;;
49193;SDS011;35029;50.804;12.866;2023-12-28T10:03:47;4.05;;;2.30;;
49193;SDS011;35029;50.804;12.866;2023-12-28T10:06:14;4.22;;;2.10;;
49193;SDS011;35029;50.804;12.866;2023-12-28T10:08:46;6.15;;;2.35;;
49193;SDS011;35029;50.804;12.866;2023-12-28T10:11:14;4.72;;;2.55;;
49193;SDS011;35029;50.804;12.866;2023-12-28T10:13:43;5.68;;;2.72;;
49193;SDS011;35029;50.804;12.866;2023-12-28T10:16:10;3.85;;;2.50;;
49193;SDS011;35029;50.804;12.866;2023-12-28T10:18:40;4.60;;;2.40;;
49193;SDS011;35029;50.804;12.866;2023-12-28T10:21:09;3.72;;;2.28;;
49193;SDS011;35029;50.804;12.866;2023-12-28T10:23:35;5.13;;;2.45;;
49193;SDS011;35029;50.804;12.866;2023-12-28T10:26:01;2.65;;;2.08;;
49193;SDS011;35029;50.804;12.866;2023-12-28T10:28:32;4.35;;;2.10;;
49193;SDS011;35029;50.804;12.866;2023-12-28T10:30:59;2.88;;;2.00;;
49193;SDS011;35029;50.804;12.866;2023-12-28T10:33:25;4.50;;;2.47;;
49193;SDS011;35029;50.804;12.866;2023-12-28T10:35:50;3.00;;;2.15;;
49193;SDS011;35029;50.804;12.866;2023-12-28T10:38:17;3.40;;;2.00;;
49193;SDS011;35029;50.804;12.866;2023-12-28T10:40:46;3.55;;;2.40;;
49193;SDS011;35029;50.804;12.866;2023-12-28T10:43:16;7.72;;;2.35;;
49193;SDS011;35029;50.804;12.866;2023-12-28T10:45:45;3.05;;;2.20;;
49193;SDS011;35029;50.804;12.866;2023-12-28T10:48:12;2.30;;;2.10;;
49193;SDS011;35029;50.804;12.866;2023-12-28T10:50:43;3.03;;;2.13;;
49193;SDS011;35029;50.804;12.866;2023-12-28T10:58:50;3.72;;;2.13;;
49193;SDS011;35029;50.804;12.866;2023-12-28T11:01:24;4.65;;;2.30;;
49193;SDS011;35029;50.804;12.866;2023-12-28T11:03:58;4.70;;;1.95;;
49193;SDS011;35029;50.804;12.866;2023-12-28T11:06:40;3.92;;;2.22;;
49193;SDS011;35029;50.804;12.866;2023-12-28T11:09:08;2.45;;;2.15;;
49193;SDS011;35029;50.804;12.866;2023-12-28T11:11:36;2.92;;;2.22;;
49193;SDS011;35029;50.804;12.866;2023-12-28T11:14:02;3.45;;;2.05;;
49193;SDS011;35029;50.804;12.866;2023-12-28T11:16:28;2.60;;;1.95;;
49193;SDS011;35029;50.804;12.866;2023-12-28T11:18:55;4.30;;;1.98;;
49193;SDS011;35029;50.804;12.866;2023-12-28T11:21:22;2.00;;;1.80;;
49193;SDS011;35029;50.804;12.866;2023-12-28T11:23:48;2.33;;;2.03;;
49193;SDS011;35029;50.804;12.866;2023-12-28T11:26:21;2.88;;;2.10;;
49193;SDS011;35029;50.804;12.866;2023-12-28T11:28:47;2.70;;;2.05;;
49193;SDS011;35029;50.804;12.866;2023-12-28T11:31:16;2.50;;;2.00;;
49193;SDS011;35029;50.804;12.866;2023-12-28T11:33:50;2.47;;;1.73;;
49193;SDS011;35029;50.804;12.866;2023-12-28T11:36:19;2.67;;;2.00;;
49193;SDS011;35029;50.804;12.866;2023-12-28T11:38:48;4.30;;;1.85;;
49193;SDS011;35029;50.804;12.866;2023-12-28T11:41:16;2.95;;;1.73;;
49193;SDS011;35029;50.804;12.866;2023-12-28T11:43:43;2.22;;;1.80;;
49193;SDS011;35029;50.804;12.866;2023-12-28T11:46:17;2.63;;;1.90;;
49193;SDS011;35029;50.804;12.866;2023-12-28T11:48:42;3.28;;;1.92;;
49193;SDS011;35029;50.804;12.866;2023-12-28T11:51:08;3.83;;;2.08;;
49193;SDS011;35029;50.804;12.866;2023-12-28T11:53:33;2.58;;;1.63;;
49193;SDS011;35029;50.804;12.866;2023-12-28T11:56:00;3.17;;;1.45;;
49193;SDS011;35029;50.804;12.866;2023-12-28T12:00:59;3.83;;;1.50;;
49193;SDS011;35029;50.804;12.866;2023-12-28T12:03:25;3.35;;;1.63;;
49193;SDS011;35029;50.804;12.866;2023-12-28T12:05:51;2.28;;;1.40;;
49193;SDS011;35029;50.804;12.866;2023-12-28T12:08:17;1.95;;;1.50;;
49193;SDS011;35029;50.804;12.866;2023-12-28T12:10:43;2.45;;;1.83;;
49193;SDS011;35029;50.804;12.866;2023-12-28T12:13:08;3.03;;;1.70;;
49193;SDS011;35029;50.804;12.866;2023-12-28T12:15:34;2.00;;;1.60;;
49193;SDS011;35029;50.804;12.866;2023-12-28T12:18:00;9.52;;;1.98;;
49193;SDS011;35029;50.804;12.866;2023-12-28T12:20:28;2.22;;;1.70;;
49193;SDS011;35029;50.804;12.866;2023-12-28T12:22:57;2.13;;;1.52;;
49193;SDS011;35029;50.804;12.866;2023-12-28T12:25:23;3.47;;;1.65;;
49193;SDS011;35029;50.804;12.866;2023-12-28T12:27:49;3.55;;;2.15;;
49193;SDS011;35029;50.804;12.866;2023-12-28T12:30:14;2.55;;;1.92;;
49193;SDS011;35029;50.804;12.866;2023-12-28T12:32:40;1.60;;;1.23;;
49193;SDS011;35029;50.804;12.866;2023-12-28T12:35:11;2.85;;;1.60;;
49193;SDS011;35029;50.804;12.866;2023-12-28T12:37:37;1.75;;;1.52;;
49193;SDS011;35029;50.804;12.866;2023-12-28T12:40:04;3.72;;;2.05;;
49193;SDS011;35029;50.804;12.866;2023-12-28T12:42:31;4.57;;;1.50;;
49193;SDS011;35029;50.804;12.866;2023-12-28T12:44:58;2.45;;;1.67;;
49193;SDS011;35029;50.804;12.866;2023-12-28T12:47:23;2.88;;;1.70;;
49193;SDS011;35029;50.804;12.866;2023-12-28T12:49:55;2.47;;;1.63;;
49193;SDS011;35029;50.804;12.866;2023-12-28T12:52:21;2.25;;;1.48;;
49193;SDS011;35029;50.804;12.866;2023-12-28T12:54:58;2.20;;;1.60;;
49193;SDS011;35029;50.804;12.866;2023-12-28T12:57:27;2.85;;;1.40;;
49193;SDS011;35029;50.804;12.866;2023-12-28T12:59:52;3.35;;;1.30;;
49193;SDS011;35029;50.804;12.866;2023-12-28T13:02:18;2.50;;;1.60;;
49193;SDS011;35029;50.804;12.866;2023-12-28T13:04:44;2.45;;;1.42;;
49193;SDS011;35029;50.804;12.866;2023-12-28T13:07:09;2.22;;;1.55;;
49193;SDS011;35029;50.804;12.866;2023-12-28T13:09:35;2.30;;;1.73;;
49193;SDS011;35029;50.804;12.866;2023-12-28T13:12:01;3.42;;;1.67;;
49193;SDS011;35029;50.804;12.866;2023-12-28T13:14:28;2.08;;;1.50;;
49193;SDS011;35029;50.804;12.866;2023-12-28T13:16:56;1.75;;;1.30;;
49193;SDS011;35029;50.804;12.866;2023-12-28T13:19:21;3.67;;;1.75;;
49193;SDS011;35029;50.804;12.866;2023-12-28T13:21:47;2.20;;;1.45;;
49193;SDS011;35029;50.804;12.866;2023-12-28T13:24:13;2.95;;;1.42;;
49193;SDS011;35029;50.804;12.866;2023-12-28T13:26:39;2.20;;;1.70;;
49193;SDS011;35029;50.804;12.866;2023-12-28T13:29:04;2.08;;;1.60;;
49193;SDS011;35029;50.804;12.866;2023-12-28T13:31:30;1.38;;;1.13;;
49193;SDS011;35029;50.804;12.866;2023-12-28T13:33:55;2.65;;;1.23;;
49193;SDS011;35029;50.804;12.866;2023-12-28T13:36:21;1.50;;;1.00;;
49193;SDS011;35029;50.804;12.866;2023-12-28T13:38:47;2.83;;;1.55;;
49193;SDS011;35029;50.804;12.866;2023-12-28T13:41:13;2.60;;;1.60;;
49193;SDS011;35029;50.804;12.866;2023-12-28T13:43:38;1.70;;;1.30;;
49193;SDS011;35029;50.804;12.866;2023-12-28T13:46:04;1.83;;;1.33;;
49193;SDS011;35029;50.804;12.866;2023-12-28T13:48:30;2.13;;;1.17;;
49193;SDS011;35029;50.804;12.866;2023-12-28T13:50:55;3.25;;;2.00;;
49193;SDS011;35029;50.804;12.866;2023-12-28T13:53:21;11.30;;;6.03;;
49193;SDS011;35029;50.804;12.866;2023-12-28T13:55:47;3.42;;;2.13;;
49193;SDS011;35029;50.804;12.866;2023-12-28T13:58:12;2.25;;;1.58;;
49193;SDS011;35029;50.804;12.866;2023-12-28T14:00:39;3.13;;;1.88;;
49193;SDS011;35029;50.804;12.866;2023-12-28T14:03:05;1.60;;;1.33;;
49193;SDS011;35029;50.804;12.866;2023-12-28T14:05:30;3.65;;;2.20;;
49193;SDS011;35029;50.804;12.866;2023-12-28T14:07:56;1.60;;;1.20;;
49193;SDS011;35029;50.804;12.866;2023-12-28T14:10:23;1.83;;;1.30;;
49193;SDS011;35029;50.804;12.866;2023-12-28T14:12:49;2.83;;;1.95;;
49193;SDS011;35029;50.804;12.866;2023-12-28T14:15:15;2.42;;;1.40;;
49193;SDS011;35029;50.804;12.866;2023-12-28T14:17:41;4.32;;;1.83;;
49193;SDS011;35029;50.804;12.866;2023-12-28T14:20:07;1.45;;;1.30;;
49193;SDS011;35029;50.804;12.866;2023-12-28T14:22:37;1.67;;;1.40;;
49193;SDS011;35029;50.804;12.866;2023-12-28T14:25:04;2.55;;;2.00;;
49193;SDS011;35029;50.804;12.866;2023-12-28T14:27:30;2.60;;;1.75;;
49193;SDS011;35029;50.804;12.866;2023-12-28T14:29:56;2.80;;;1.95;;
49193;SDS011;35029;50.804;12.866;2023-12-28T14:32:22;2.70;;;1.73;;
49193;SDS011;35029;50.804;12.866;2023-12-28T14:34:48;4.30;;;1.98;;
49193;SDS011;35029;50.804;12.866;2023-12-28T14:37:14;3.97;;;2.45;;
49193;SDS011;35029;50.804;12.866;2023-12-28T14:39:39;1.85;;;1.55;;
49193;SDS011;35029;50.804;12.866;2023-12-28T14:42:06;5.07;;;1.95;;
49193;SDS011;35029;50.804;12.866;2023-12-28T14:44:32;2.63;;;2.00;;
49193;SDS011;35029;50.804;12.866;2023-12-28T14:46:58;2.13;;;1.50;;